Time;durP1;ratioP1;P1;durP2;ratioP2;P2;SDS_P1;SDS_P2;PMS_P1;PMS_P2;Temp;Humidity;BMP_temperature;BMP_pressure;BME280_temperature;BME280_humidity;BME280_pressure;Samples;Min_cycle;Max_cycle;Signal;HPM_P1;HPM_P2
2023/12/03 00:01:21;;;;;;;;;;;-0.40;99.90;;;;;;5051323;28;20014;-88
2023/12/03 00:03:47;;;;;;;;;;;-0.40;99.90;;;;;;5048585;28;20395;-88
2023/12/03 00:06:13;;;;;;;;;;;0.60;99.90;;;;;;5066399;28;19920;-88
2023/12/03 00:08:40;;;;;;;;;;;0.70;99.90;;;;;;5045520;28;19928;-88
2023/12/03 00:11:05;;;;;;;;;;;1.30;99.90;;;;;;5053529;28;19920;-88
2023/12/03 00:13:31;;;;;;;;;;;-0.50;99.90;;;;;;5035848;28;19931;-88
2023/12/03 00:15:57;;;;;;;;;;;0.90;99.90;;;;;;5051266;28;19929;-87
2023/12/03 00:18:22;;;;;;;;;;;-0.60;99.90;;;;;;5052480;28;19931;-89
2023/12/03 00:20:48;;;;;;;;;;;-0.60;99.90;;;;;;5042797;28;19924;-89
2023/12/03 00:23:13;;;;;;;;;;;-0.70;99.90;;;;;;5036634;28;19931;-88
2023/12/03 00:25:39;;;;;;;;;;;0.50;99.90;;;;;;5035409;28;20035;-89
2023/12/03 00:28:04;;;;;;;;;;;-0.70;99.90;;;;;;5036689;28;19920;-90
2023/12/03 00:30:30;;;;;;;;;;;0.50;99.90;;;;;;5051340;28;21050;-90
2023/12/03 00:32:56;;;;;;;;;;;1.00;99.90;;;;;;5049537;28;20371;-89
2023/12/03 00:35:21;;;;;;;;;;;0.60;99.90;;;;;;5043223;28;19928;-90
2023/12/03 00:37:47;;;;;;;;;;;-0.90;99.90;;;;;;5036864;28;19928;-91
2023/12/03 00:40:12;;;;;;;;;;;-0.90;99.90;;;;;;5035162;28;19929;-91
2023/12/03 00:42:38;;;;;;;;;;;-0.90;99.90;;;;;;5035965;28;20326;-90
2023/12/03 00:45:04;;;;;;;;;;;0.30;99.90;;;;;;5036363;28;19924;-89
2023/12/03 00:47:30;;;;;;;;;;;-1.50;99.90;;;;;;5053931;28;19986;-91
2023/12/03 00:49:55;;;;;;;;;;;0.20;99.90;;;;;;5050598;28;19924;-91
2023/12/03 00:52:21;;;;;;;;;;;-1.00;99.90;;;;;;5033773;28;19920;-91
2023/12/03 00:54:46;;;;;;;;;;;-0.30;99.90;;;;;;5032441;28;19927;-92
2023/12/03 00:57:12;;;;;;;;;;;0.40;99.90;;;;;;5048065;28;19935;-90
2023/12/03 00:59:37;;;;;;;;;;;-1.20;99.90;;;;;;5050217;28;19925;-92
2023/12/03 01:02:03;;;;;;;;;;;-1.20;99.90;;;;;;5037070;28;19926;-92
2023/12/03 01:04:29;;;;;;;;;;;-1.20;99.90;;;;;;5031489;28;19924;-92
2023/12/03 01:06:54;;;;;;;;;;;-1.20;99.90;;;;;;5036903;28;19920;-92
2023/12/03 01:09:20;;;;;;;;;;;-1.20;99.90;;;;;;5019160;28;20326;-92
2023/12/03 01:11:46;;;;;;;;;;;-0.70;99.90;;;;;;5038181;28;19924;-91
2023/12/03 01:14:12;;;;;;;;;;;-1.20;99.90;;;;;;5053309;28;19967;-92
2023/12/03 01:16:37;;;;;;;;;;;0.40;99.90;;;;;;5029783;28;19931;-93
2023/12/03 01:19:03;;;;;;;;;;;0.40;99.90;;;;;;5053363;28;20322;-93
2023/12/03 01:21:29;;;;;;;;;;;-1.30;99.90;;;;;;5053245;28;19920;-93
2023/12/03 01:23:54;;;;;;;;;;;-1.30;99.90;;;;;;5024134;28;20011;-93
2023/12/03 01:26:20;;;;;;;;;;;-1.30;99.90;;;;;;5016599;28;20007;-93
2023/12/03 01:28:46;;;;;;;;;;;-1.30;99.90;;;;;;5034578;28;19976;-93
2023/12/03 01:31:12;;;;;;;;;;;0.10;99.90;;;;;;5017214;28;20514;-92
2023/12/03 01:33:37;;;;;;;;;;;-1.50;99.90;;;;;;5035087;28;19969;-92
2023/12/03 01:36:03;;;;;;;;;;;-1.40;99.90;;;;;;5029133;28;19924;-93
2023/12/03 01:38:28;;;;;;;;;;;-1.40;99.90;;;;;;5034721;28;19920;-93
2023/12/03 01:40:54;;;;;;;;;;;0.50;99.90;;;;;;5038053;28;20394;-94
2023/12/03 01:43:20;;;;;;;;;;;-0.20;99.90;;;;;;5037258;28;19920;-94
2023/12/03 01:45:45;;;;;;;;;;;-1.50;99.90;;;;;;5037179;28;20352;-95
2023/12/03 01:48:11;;;;;;;;;;;;;;;;;;5034523;28;19921;-95
2023/12/03 01:50:38;;;;;;;;;;;-1.50;99.90;;;;;;5049275;28;19928;-94
2023/12/03 01:53:04;;;;;;;;;;;-1.50;99.90;;;;;;5051538;28;19970;-94
2023/12/03 01:55:29;;;;;;;;;;;-0.20;99.90;;;;;;5016402;28;19928;-95
2023/12/03 01:57:55;;;;;;;;;;;-1.20;99.90;;;;;;5036862;28;19921;-96
2023/12/03 02:00:21;;;;;;;;;;;0.20;99.90;;;;;;5038166;28;19920;-95
2023/12/03 02:02:46;;;;;;;;;;;-1.60;99.90;;;;;;5027476;28;20003;-96
2023/12/03 02:05:12;;;;;;;;;;;-0.80;99.90;;;;;;5019348;28;19974;-95
2023/12/03 02:07:38;;;;;;;;;;;0.00;99.90;;;;;;5036929;28;19929;-95
2023/12/03 02:10:04;;;;;;;;;;;-0.50;99.90;;;;;;5038282;28;20279;-95
2023/12/03 02:12:30;;;;;;;;;;;-1.80;99.90;;;;;;5037247;28;19978;-96
2023/12/03 02:14:56;;;;;;;;;;;-1.80;99.90;;;;;;5037734;28;19921;-95
2023/12/03 02:17:21;;;;;;;;;;;-1.80;99.90;;;;;;5021661;28;19929;-95
2023/12/03 02:19:47;;;;;;;;;;;-0.70;99.90;;;;;;5037706;28;19921;-95
2023/12/03 02:22:12;;;;;;;;;;;-1.80;99.90;;;;;;5043308;28;19935;-94
2023/12/03 02:24:38;;;;;;;;;;;-1.00;99.90;;;;;;5034792;28;19932;-95
2023/12/03 02:27:04;;;;;;;;;;;-0.70;99.90;;;;;;5021182;28;19972;-95
2023/12/03 02:29:29;;;;;;;;;;;-2.90;99.90;;;;;;5034133;28;20046;-95
2023/12/03 02:31:55;;;;;;;;;;;-0.60;99.90;;;;;;5019922;28;19920;-96
2023/12/03 02:34:20;;;;;;;;;;;-1.80;99.90;;;;;;5018057;28;20307;-95
2023/12/03 02:36:46;;;;;;;;;;;-0.50;99.90;;;;;;5017930;28;20160;-96
2023/12/03 02:39:12;;;;;;;;;;;-1.00;99.90;;;;;;5041134;28;20364;-95
2023/12/03 02:41:37;;;;;;;;;;;-0.20;99.90;;;;;;5024184;28;19920;-94
2023/12/03 02:44:03;;;;;;;;;;;-1.20;99.90;;;;;;5040875;28;20363;-95
2023/12/03 02:46:29;;;;;;;;;;;-2.00;99.90;;;;;;5032967;28;19924;-94
2023/12/03 02:48:54;;;;;;;;;;;-0.50;99.90;;;;;;5020109;28;19921;-95
2023/12/03 02:51:20;;;;;;;;;;;-3.00;99.90;;;;;;5037115;28;19929;-94
2023/12/03 02:53:46;;;;;;;;;;;-0.80;99.90;;;;;;5060756;28;20260;-94
2023/12/03 02:56:12;;;;;;;;;;;-1.70;99.90;;;;;;5039331;28;19958;-95
2023/12/03 02:58:38;;;;;;;;;;;-2.00;99.90;;;;;;5038673;28;19920;-95
2023/12/03 03:01:04;;;;;;;;;;;-0.60;99.90;;;;;;5040225;28;19956;-92
2023/12/03 03:03:30;;;;;;;;;;;-2.00;99.90;;;;;;5031625;28;20025;-94
2023/12/03 03:05:56;;;;;;;;;;;-2.40;99.90;;;;;;5020528;28;20411;-92
2023/12/03 03:08:21;;;;;;;;;;;-2.00;99.90;;;;;;5036314;28;19947;-94
2023/12/03 03:10:47;;;;;;;;;;;-0.70;99.90;;;;;;5023570;28;19921;-93
2023/12/03 03:13:12;;;;;;;;;;;-2.00;99.90;;;;;;5039921;28;19973;-93
2023/12/03 03:15:38;;;;;;;;;;;-1.40;99.90;;;;;;5022903;28;20023;-94
2023/12/03 03:18:04;;;;;;;;;;;0.00;99.90;;;;;;5040660;28;19967;-94
2023/12/03 03:20:30;;;;;;;;;;;-2.10;99.90;;;;;;5039172;28;19921;-94
2023/12/03 03:22:55;;;;;;;;;;;-0.90;99.90;;;;;;5019376;28;20020;-95
2023/12/03 03:25:21;;;;;;;;;;;-2.10;99.90;;;;;;5017953;28;19947;-94
2023/12/03 03:27:47;;;;;;;;;;;-2.10;99.90;;;;;;5007078;28;19927;-93
2023/12/03 03:30:12;;;;;;;;;;;-2.20;99.90;;;;;;5002113;28;20438;-92
2023/12/03 03:32:38;;;;;;;;;;;-2.20;99.90;;;;;;5019041;28;19920;-93
2023/12/03 03:35:04;;;;;;;;;;;-2.30;99.90;;;;;;5000476;28;20311;-94
2023/12/03 03:37:29;;;;;;;;;;;-2.20;99.90;;;;;;5023577;28;19925;-93
2023/12/03 03:39:55;;;;;;;;;;;-0.50;99.90;;;;;;5016961;28;19931;-93
2023/12/03 03:42:21;;;;;;;;;;;-0.40;99.90;;;;;;5018826;28;19944;-93
2023/12/03 03:44:46;;;;;;;;;;;-2.30;99.90;;;;;;4992583;28;19953;-93
2023/12/03 03:47:12;;;;;;;;;;;-0.70;99.90;;;;;;5005994;28;20443;-94
2023/12/03 03:49:38;;;;;;;;;;;-1.30;99.90;;;;;;5017191;28;19927;-93
2023/12/03 03:52:04;;;;;;;;;;;-2.20;99.90;;;;;;5012842;28;20011;-93
2023/12/03 03:54:30;;;;;;;;;;;-2.30;99.90;;;;;;5019115;28;19921;-94
2023/12/03 03:56:55;;;;;;;;;;;-0.30;99.90;;;;;;5018320;28;19933;-93
2023/12/03 03:59:21;;;;;;;;;;;-2.30;99.90;;;;;;5018751;28;20073;-95
2023/12/03 04:01:47;;;;;;;;;;;-2.40;99.90;;;;;;5002270;28;19925;-94
2023/12/03 04:04:12;;;;;;;;;;;-0.80;99.90;;;;;;5016851;28;20400;-94
2023/12/03 04:06:39;;;;;;;;;;;-1.60;99.90;;;;;;5019109;28;19967;-94
2023/12/03 04:09:04;;;;;;;;;;;-2.30;99.90;;;;;;5018717;28;20007;-94
2023/12/03 04:11:30;;;;;;;;;;;-2.30;99.90;;;;;;5002937;28;19927;-93
2023/12/03 04:13:56;;;;;;;;;;;-1.20;99.90;;;;;;5001400;28;19927;-94
2023/12/03 04:16:22;;;;;;;;;;;-2.30;99.90;;;;;;5000309;28;19990;-94
2023/12/03 04:18:48;;;;;;;;;;;-0.60;99.90;;;;;;4998712;28;19924;-94
2023/12/03 04:21:15;;;;;;;;;;;-0.80;99.90;;;;;;5016649;28;19936;-94
2023/12/03 04:23:40;;;;;;;;;;;-2.30;99.90;;;;;;5015771;28;19928;-93
2023/12/03 04:26:09;;;;;;;;;;;-2.30;99.90;;;;;;4999824;28;20118;-93
2023/12/03 04:28:35;;;;;;;;;;;-2.30;99.90;;;;;;5017876;28;19967;-94
2023/12/03 04:31:00;;;;;;;;;;;-2.30;99.90;;;;;;5011394;28;19921;-94
2023/12/03 04:33:26;;;;;;;;;;;-0.50;99.90;;;;;;4998133;28;19928;-93
2023/12/03 04:35:51;;;;;;;;;;;-0.60;99.90;;;;;;4999090;28;19928;-93
2023/12/03 04:38:17;;;;;;;;;;;-2.50;99.90;;;;;;5015784;28;19938;-93
2023/12/03 04:40:43;;;;;;;;;;;-0.50;99.90;;;;;;5001083;28;19974;-94
2023/12/03 04:43:08;;;;;;;;;;;-2.40;99.90;;;;;;5017091;28;19925;-94
2023/12/03 04:45:34;;;;;;;;;;;-0.80;99.90;;;;;;5017490;28;19932;-94
2023/12/03 04:48:00;;;;;;;;;;;-2.40;99.90;;;;;;5037061;28;19921;-93
2023/12/03 04:50:25;;;;;;;;;;;-2.40;99.90;;;;;;5001392;28;19974;-93
2023/12/03 04:52:51;;;;;;;;;;;-0.70;99.90;;;;;;5020560;28;20308;-92
2023/12/03 04:55:16;;;;;;;;;;;-2.00;99.90;;;;;;5017453;28;20416;-92
2023/12/03 04:57:42;;;;;;;;;;;-0.90;99.90;;;;;;5032532;28;19935;-92
2023/12/03 05:00:08;;;;;;;;;;;-1.10;99.90;;;;;;4994569;28;19963;-93
2023/12/03 05:02:34;;;;;;;;;;;-2.30;99.90;;;;;;5007236;28;20325;-93
2023/12/03 05:05:00;;;;;;;;;;;-1.10;99.90;;;;;;4995288;28;19927;-92
2023/12/03 05:07:25;;;;;;;;;;;-0.80;99.90;;;;;;5030528;28;20394;-94
2023/12/03 05:09:51;;;;;;;;;;;-2.00;99.90;;;;;;4999921;28;20531;-94
2023/12/03 05:12:16;;;;;;;;;;;-1.10;99.90;;;;;;5014242;28;19928;-95
2023/12/03 05:14:42;;;;;;;;;;;0.00;99.90;;;;;;5013325;28;20296;-92
2023/12/03 05:17:08;;;;;;;;;;;0.00;99.90;;;;;;4995655;28;20037;-93
2023/12/03 05:19:33;;;;;;;;;;;-1.80;99.90;;;;;;5001525;28;19944;-94
2023/12/03 05:21:59;;;;;;;;;;;-0.70;99.90;;;;;;5013257;28;19921;-94
2023/12/03 05:24:25;;;;;;;;;;;-1.00;99.90;;;;;;5014471;28;19947;-93
2023/12/03 05:26:50;;;;;;;;;;;-1.70;99.90;;;;;;5047548;28;19925;-94
2023/12/03 05:29:17;;;;;;;;;;;-3.00;99.90;;;;;;5042837;28;19921;-94
2023/12/03 05:31:44;;;;;;;;;;;-0.30;99.90;;;;;;5035468;28;19992;-93
2023/12/03 05:34:09;;;;;;;;;;;0.10;99.90;;;;;;5034601;28;19966;-93
2023/12/03 05:36:35;;;;;;;;;;;-0.30;99.90;;;;;;5050384;28;19924;-90
2023/12/03 05:39:00;;;;;;;;;;;-0.50;99.90;;;;;;5068005;28;20426;-91
2023/12/03 05:41:26;;;;;;;;;;;-0.20;99.90;;;;;;5034490;28;19971;-93
2023/12/03 05:43:52;;;;;;;;;;;0.50;99.90;;;;;;5018857;28;19924;-91
2023/12/03 05:46:18;;;;;;;;;;;-0.80;99.90;;;;;;5048249;28;19928;-90
2023/12/03 05:48:43;;;;;;;;;;;0.10;99.90;;;;;;5037013;28;19970;-94
2023/12/03 05:51:10;;;;;;;;;;;0.30;99.90;;;;;;5052044;28;19929;-94
2023/12/03 05:53:35;;;;;;;;;;;-0.10;99.90;;;;;;5052310;28;19920;-93
2023/12/03 05:56:01;;;;;;;;;;;-1.40;99.90;;;;;;5034785;28;19939;-93
2023/12/03 05:58:27;;;;;;;;;;;-0.20;99.90;;;;;;5034100;28;19931;-93
2023/12/03 06:00:52;;;;;;;;;;;-0.20;99.90;;;;;;5052892;28;19920;-92
2023/12/03 06:03:18;;;;;;;;;;;0.40;99.90;;;;;;5049325;28;19978;-93
2023/12/03 06:05:44;;;;;;;;;;;0.60;99.90;;;;;;5048667;28;19940;-94
2023/12/03 06:08:09;;;;;;;;;;;0.30;99.90;;;;;;5036483;28;19920;-94
2023/12/03 06:10:35;;;;;;;;;;;0.90;99.90;;;;;;5053451;28;20429;-94
2023/12/03 06:13:00;;;;;;;;;;;0.10;99.90;;;;;;5039922;28;19943;-93
2023/12/03 06:15:26;;;;;;;;;;;-0.90;99.90;;;;;;5054641;28;20043;-93
2023/12/03 06:17:52;;;;;;;;;;;0.40;99.90;;;;;;5057356;28;19965;-92
2023/12/03 06:20:18;;;;;;;;;;;0.50;99.90;;;;;;5031535;28;19924;-92
2023/12/03 06:22:44;;;;;;;;;;;0.50;99.90;;;;;;5038722;28;19939;-93
2023/12/03 06:25:09;;;;;;;;;;;0.50;99.90;;;;;;5035547;28;19928;-93
2023/12/03 06:27:35;;;;;;;;;;;0.50;99.90;;;;;;5055254;28;20367;-93
2023/12/03 06:30:01;;;;;;;;;;;0.80;99.90;;;;;;5056646;28;19921;-92
2023/12/03 06:32:29;;;;;;;;;;;-0.80;99.90;;;;;;5056900;28;20015;-94
2023/12/03 06:34:55;;;;;;;;;;;-0.30;99.90;;;;;;5046718;28;20497;-94
2023/12/03 06:37:21;;;;;;;;;;;-0.50;99.90;;;;;;5049885;28;20049;-93
2023/12/03 06:39:47;;;;;;;;;;;0.20;99.90;;;;;;5039478;28;20065;-94
2023/12/03 06:42:13;;;;;;;;;;;-0.60;99.90;;;;;;5035284;28;19925;-94
2023/12/03 06:44:38;;;;;;;;;;;0.30;99.90;;;;;;5036551;28;19921;-93
2023/12/03 06:47:05;;;;;;;;;;;0.40;99.90;;;;;;5048630;28;19921;-92
2023/12/03 06:49:30;;;;;;;;;;;-0.50;99.90;;;;;;5053972;28;19920;-94
2023/12/03 06:51:56;;;;;;;;;;;-0.50;99.90;;;;;;5039873;28;19928;-95
2023/12/03 06:54:22;;;;;;;;;;;-0.50;99.90;;;;;;5040060;28;19925;-95
2023/12/03 06:56:47;;;;;;;;;;;-0.50;99.90;;;;;;5039895;28;19938;-94
2023/12/03 06:59:13;;;;;;;;;;;-0.40;99.90;;;;;;5072261;28;19924;-92
2023/12/03 07:01:39;;;;;;;;;;;0.80;99.90;;;;;;5053690;28;19929;-93
2023/12/03 07:04:04;;;;;;;;;;;1.00;99.90;;;;;;5047499;28;20382;-94
2023/12/03 07:06:30;;;;;;;;;;;-0.30;99.90;;;;;;5045627;28;19920;-94
2023/12/03 07:08:56;;;;;;;;;;;-0.30;99.90;;;;;;5055946;28;19921;-93
2023/12/03 07:11:21;;;;;;;;;;;0.50;99.90;;;;;;5069708;28;20395;-92
2023/12/03 07:13:47;;;;;;;;;;;0.50;99.90;;;;;;5047181;28;19920;-93
2023/12/03 07:16:16;;;;;;;;;;;-0.30;99.90;;;;;;5067741;28;19931;-94
2023/12/03 07:18:45;;;;;;;;;;;-0.30;99.90;;;;;;5037756;28;20459;-95
2023/12/03 07:21:11;;;;;;;;;;;-0.30;99.90;;;;;;5038262;28;20437;-94
2023/12/03 07:23:37;;;;;;;;;;;-0.30;99.90;;;;;;5043872;28;19929;-94
2023/12/03 07:26:08;;;;;;;;;;;-0.20;99.90;;;;;;5034060;28;19933;-95
2023/12/03 07:28:37;;;;;;;;;;;-0.20;99.90;;;;;;5084948;28;19967;-94
2023/12/03 07:31:05;;;;;;;;;;;-0.20;99.90;;;;;;5031198;28;19960;-95
2023/12/03 07:33:32;;;;;;;;;;;-0.20;99.90;;;;;;5048054;28;19924;-92
2023/12/03 07:35:58;;;;;;;;;;;-0.10;99.90;;;;;;5054102;28;19982;-91
2023/12/03 07:38:23;;;;;;;;;;;1.00;99.90;;;;;;5046577;28;19924;-95
2023/12/03 07:40:49;;;;;;;;;;;0.90;99.90;;;;;;5055088;28;19963;-92
2023/12/03 07:43:14;;;;;;;;;;;-0.10;99.90;;;;;;5037751;28;20379;-92
2023/12/03 07:45:40;;;;;;;;;;;-0.10;99.90;;;;;;5055609;28;19943;-92
2023/12/03 07:48:05;;;;;;;;;;;0.90;99.90;;;;;;5037858;28;20003;-94
2023/12/03 07:50:31;;;;;;;;;;;0.70;99.90;;;;;;5047118;28;19931;-92
2023/12/03 07:52:58;;;;;;;;;;;0.00;99.90;;;;;;5062940;28;19921;-92
2023/12/03 07:55:24;;;;;;;;;;;0.00;99.90;;;;;;5049680;28;19921;-92
2023/12/03 07:57:50;;;;;;;;;;;1.10;99.90;;;;;;5031172;28;20384;-92
2023/12/03 08:00:16;;;;;;;;;;;0.00;99.90;;;;;;5037164;28;19920;-91
2023/12/03 08:02:42;;;;;;;;;;;0.00;99.90;;;;;;5054169;28;19983;-88
2023/12/03 08:05:08;;;;;;;;;;;0.30;99.90;;;;;;5034363;28;20482;-90
2023/12/03 08:07:34;;;;;;;;;;;0.10;99.90;;;;;;5052246;28;19927;-88
2023/12/03 08:10:00;;;;;;;;;;;0.30;99.90;;;;;;5041982;28;19920;-87
2023/12/03 08:12:25;;;;;;;;;;;0.10;99.90;;;;;;5052504;28;19921;-89
2023/12/03 08:14:51;;;;;;;;;;;0.10;99.90;;;;;;5034791;28;19920;-91
2023/12/03 08:17:17;;;;;;;;;;;0.70;99.90;;;;;;5047072;28;19954;-89
2023/12/03 08:19:43;;;;;;;;;;;1.10;99.90;;;;;;5039347;28;19924;-89
2023/12/03 08:22:08;;;;;;;;;;;0.30;99.90;;;;;;5050889;28;20394;-89
2023/12/03 08:24:34;;;;;;;;;;;0.20;99.90;;;;;;5046894;28;19971;-86
2023/12/03 08:27:00;;;;;;;;;;;1.50;99.90;;;;;;5050905;28;20052;-86
2023/12/03 08:29:26;;;;;;;;;;;0.30;99.90;;;;;;5031286;28;19924;-88
2023/12/03 08:31:52;;;;;;;;;;;0.30;99.90;;;;;;5047965;28;19986;-87
2023/12/03 08:34:17;;;;;;;;;;;1.40;99.90;;;;;;5047463;28;19924;-88
2023/12/03 08:36:43;;;;;;;;;;;0.80;99.90;;;;;;5050795;28;19931;-88
2023/12/03 08:39:09;;;;;;;;;;;1.00;99.90;;;;;;5050309;28;19924;-89
2023/12/03 08:41:36;;;;;;;;;;;0.30;99.90;;;;;;5046225;28;19921;-90
2023/12/03 08:44:02;;;;;;;;;;;1.50;99.90;;;;;;5041615;28;19927;-88
2023/12/03 08:46:27;;;;;;;;;;;0.70;99.90;;;;;;5058393;28;19935;-89
2023/12/03 08:48:53;;;;;;;;;;;0.40;99.90;;;;;;5033924;28;20015;-88
2023/12/03 08:51:18;;;;;;;;;;;1.50;99.90;;;;;;5022573;28;19920;-87
2023/12/03 08:53:44;;;;;;;;;;;0.40;99.90;;;;;;5042194;28;19936;-89
2023/12/03 08:56:13;;;;;;;;;;;0.40;99.90;;;;;;5021535;28;20008;-89
2023/12/03 08:58:43;;;;;;;;;;;0.40;99.90;;;;;;5044590;28;19928;-89
2023/12/03 09:01:08;;;;;;;;;;;0.40;99.90;;;;;;5061610;28;20014;-87
2023/12/03 09:03:34;;;;;;;;;;;0.40;99.90;;;;;;5043726;28;19960;-88
2023/12/03 09:06:00;;;;;;;;;;;0.40;99.90;;;;;;5030752;28;19925;-90
2023/12/03 09:08:26;;;;;;;;;;;1.70;99.90;;;;;;5043323;28;20444;-88
2023/12/03 09:10:51;;;;;;;;;;;0.60;99.90;;;;;;5062380;28;19975;-88
2023/12/03 09:13:17;;;;;;;;;;;0.50;99.90;;;;;;5038592;28;19932;-90
2023/12/03 09:15:43;;;;;;;;;;;0.50;99.90;;;;;;5046245;28;19977;-88
2023/12/03 09:18:08;;;;;;;;;;;1.90;99.90;;;;;;5045637;28;19931;-90
2023/12/03 09:20:34;;;;;;;;;;;0.50;99.90;;;;;;5045316;28;20391;-88
2023/12/03 09:23:00;;;;;;;;;;;-0.60;99.90;;;;;;5061803;28;19980;-93
2023/12/03 09:25:25;;;;;;;;;;;0.70;99.90;;;;;;5050273;28;20367;-91
2023/12/03 09:27:51;;;;;;;;;;;0.50;99.90;;;;;;5031722;28;19921;-91
2023/12/03 09:30:17;;;;;;;;;;;2.10;99.90;;;;;;5051375;28;19921;-89
2023/12/03 09:32:43;;;;;;;;;;;0.80;99.90;;;;;;5028632;28;19985;-90
2023/12/03 09:35:09;;;;;;;;;;;0.70;99.90;;;;;;5047535;28;20467;-89
2023/12/03 09:37:34;;;;;;;;;;;0.80;99.90;;;;;;5054399;28;19978;-91
2023/12/03 09:40:02;;;;;;;;;;;2.00;99.90;;;;;;5034354;28;19939;-90
2023/12/03 09:42:29;;;;;;;;;;;1.90;99.90;;;;;;5051204;28;19929;-91
2023/12/03 09:45:03;;;;;;;;;;;0.80;99.90;;;;;;5052833;28;19920;-92
2023/12/03 09:47:33;;;;;;;;;;;0.90;99.90;;;;;;5071625;28;19925;-92
2023/12/03 09:50:00;;;;;;;;;;;1.40;99.90;;;;;;5052837;28;20015;-89
2023/12/03 09:52:28;;;;;;;;;;;0.90;99.90;;;;;;5049563;28;19934;-92
2023/12/03 09:55:00;;;;;;;;;;;1.00;99.90;;;;;;5057771;28;20323;-87
2023/12/03 09:57:29;;;;;;;;;;;1.00;99.90;;;;;;5057388;28;19924;-92
2023/12/03 10:00:03;;;;;;;;;;;0.90;99.90;;;;;;5054699;28;20367;-89
2023/12/03 10:02:30;;;;;;;;;;;1.00;99.90;;;;;;5051284;28;19928;-91
2023/12/03 10:04:56;;;;;;;;;;;1.30;99.90;;;;;;5046729;28;19929;-88
2023/12/03 10:07:22;;;;;;;;;;;1.40;99.90;;;;;;5035059;28;19940;-87
2023/12/03 10:09:48;;;;;;;;;;;1.00;99.90;;;;;;5056037;28;19925;-87
2023/12/03 10:12:16;;;;;;;;;;;1.20;99.90;;;;;;5050198;28;19931;-89
2023/12/03 10:14:42;;;;;;;;;;;2.00;99.90;;;;;;5051006;28;19932;-91
2023/12/03 10:17:08;;;;;;;;;;;1.30;99.90;;;;;;5058243;28;20437;-88
2023/12/03 10:19:34;;;;;;;;;;;1.30;99.90;;;;;;5035158;28;20265;-87
2023/12/03 10:21:59;;;;;;;;;;;1.20;99.90;;;;;;5048224;28;19924;-87
2023/12/03 10:24:25;;;;;;;;;;;1.30;99.90;;;;;;5044041;28;19925;-89
2023/12/03 10:27:00;;;;;;;;;;;1.40;99.90;;;;;;5036568;28;19951;-86
2023/12/03 10:29:27;;;;;;;;;;;1.40;99.90;;;;;;5049243;28;19921;-93
2023/12/03 10:31:53;;;;;;;;;;;1.50;99.90;;;;;;5052615;28;19931;-90
2023/12/03 10:34:20;;;;;;;;;;;1.60;99.90;;;;;;5066561;28;20291;-91
2023/12/03 10:36:46;;;;;;;;;;;1.60;99.90;;;;;;5049001;28;19972;-87
2023/12/03 10:39:17;;;;;;;;;;;1.50;99.90;;;;;;5051791;28;19975;-89
2023/12/03 10:41:46;;;;;;;;;;;1.60;99.90;;;;;;5036673;28;19929;-91
2023/12/03 10:44:15;;;;;;;;;;;1.60;99.90;;;;;;5035862;28;19939;-90
2023/12/03 10:46:41;;;;;;;;;;;1.70;99.90;;;;;;5036050;28;19921;-89
2023/12/03 10:49:08;;;;;;;;;;;1.80;99.90;;;;;;5042115;28;19920;-89
2023/12/03 10:51:35;;;;;;;;;;;1.70;99.90;;;;;;5035533;28;19974;-91
2023/12/03 10:54:01;;;;;;;;;;;;;;;;;;5072008;28;20497;-89
2023/12/03 10:56:30;;;;;;;;;;;1.80;99.90;;;;;;5066600;28;19931;-85
2023/12/03 10:58:59;;;;;;;;;;;1.80;99.90;;;;;;5051018;28;19921;-91
2023/12/03 11:01:27;;;;;;;;;;;1.90;99.90;;;;;;5055098;28;19973;-89
2023/12/03 11:04:08;;;;;;;;;;;1.80;99.90;;;;;;5054086;28;19920;-92
2023/12/03 11:06:34;;;;;;;;;;;1.90;99.90;;;;;;5064055;28;19921;-92
2023/12/03 11:09:00;;;;;;;;;;;1.90;99.90;;;;;;5051559;28;19928;-91
2023/12/03 11:11:26;;;;;;;;;;;2.10;99.90;;;;;;5056528;28;19920;-88
2023/12/03 11:13:53;;;;;;;;;;;1.90;99.90;;;;;;5053546;28;19929;-89
2023/12/03 11:16:19;;;;;;;;;;;2.00;99.90;;;;;;5067072;28;19930;-88
2023/12/03 11:19:06;;;;;;;;;;;1.90;99.90;;;;;;5022894;28;20032;-91
2023/12/03 11:21:37;;;;;;;;;;;1.90;99.90;;;;;;5064850;28;20138;-88
2023/12/03 11:24:16;;;;;;;;;;;1.90;99.90;;;;;;5046398;28;19979;-91
2023/12/03 11:26:42;;;;;;;;;;;2.00;99.90;;;;;;5053399;28;20344;-90
2023/12/03 11:29:08;;;;;;;;;;;2.00;99.90;;;;;;5032740;28;19928;-89
2023/12/03 11:31:34;;;;;;;;;;;2.00;99.90;;;;;;5033502;28;19928;-89
2023/12/03 11:34:00;;;;;;;;;;;2.00;99.90;;;;;;5072479;28;19920;-88
2023/12/03 11:36:52;;;;;;;;;;;2.10;99.90;;;;;;5053307;28;19924;-89
2023/12/03 11:39:19;;;;;;;;;;;2.10;99.90;;;;;;5058231;28;20384;-91
2023/12/03 11:41:45;;;;;;;;;;;2.50;99.90;;;;;;5038713;28;19920;-89
2023/12/03 11:44:18;;;;;;;;;;;3.00;99.90;;;;;;5053424;28;20368;-91
2023/12/03 11:46:50;;;;;;;;;;;2.10;99.90;;;;;;5055664;28;19927;-88
2023/12/03 11:49:17;;;;;;;;;;;2.20;99.90;;;;;;5054421;28;19963;-89
2023/12/03 11:51:49;;;;;;;;;;;2.20;99.90;;;;;;5043479;28;19924;-90
2023/12/03 11:54:17;;;;;;;;;;;2.20;99.90;;;;;;5053974;28;19927;-90
2023/12/03 11:56:43;;;;;;;;;;;2.10;99.90;;;;;;5052090;28;19936;-90
2023/12/03 11:59:12;;;;;;;;;;;2.00;99.90;;;;;;5047352;28;19925;-87
2023/12/03 12:01:38;;;;;;;;;;;2.10;99.90;;;;;;5053658;28;20495;-91
2023/12/03 12:04:04;;;;;;;;;;;2.10;99.90;;;;;;5053724;28;19927;-89
2023/12/03 12:06:31;;;;;;;;;;;2.10;99.90;;;;;;5046640;28;19920;-90
2023/12/03 12:08:58;;;;;;;;;;;3.10;99.90;;;;;;5046416;28;19938;-90
2023/12/03 12:11:24;;;;;;;;;;;2.20;99.90;;;;;;5040613;28;19921;-88
2023/12/03 12:13:50;;;;;;;;;;;2.20;99.90;;;;;;5054364;28;19920;-91
2023/12/03 12:16:15;;;;;;;;;;;2.10;99.90;;;;;;5069996;28;19931;-90
2023/12/03 12:18:41;;;;;;;;;;;2.10;99.90;;;;;;5051122;28;19922;-90
2023/12/03 12:21:10;;;;;;;;;;;2.00;99.90;;;;;;5038157;28;20442;-90
2023/12/03 12:23:35;;;;;;;;;;;2.00;99.90;;;;;;5054345;28;19924;-89
2023/12/03 12:26:01;;;;;;;;;;;2.10;99.90;;;;;;5032169;28;20007;-87
2023/12/03 12:28:27;;;;;;;;;;;2.10;99.90;;;;;;5033568;28;20379;-91
2023/12/03 12:30:54;;;;;;;;;;;2.10;99.90;;;;;;5017596;28;19925;-88
2023/12/03 12:33:20;;;;;;;;;;;2.10;99.90;;;;;;5049215;28;20019;-90
2023/12/03 12:35:48;;;;;;;;;;;2.10;99.90;;;;;;5051594;28;20007;-91
2023/12/03 12:38:14;;;;;;;;;;;2.00;99.90;;;;;;5034745;28;19921;-92
2023/12/03 12:40:50;;;;;;;;;;;2.00;99.90;;;;;;5017297;28;19982;-91
2023/12/03 12:43:17;;;;;;;;;;;2.00;99.90;;;;;;5049023;28;19974;-91
2023/12/03 12:45:43;;;;;;;;;;;2.00;99.90;;;;;;5009055;28;19929;-89
2023/12/03 12:48:22;;;;;;;;;;;2.80;99.90;;;;;;5020260;28;19924;-90
2023/12/03 12:50:47;;;;;;;;;;;2.10;99.90;;;;;;5034429;28;19931;-90
2023/12/03 12:53:13;;;;;;;;;;;2.20;99.90;;;;;;5035498;28;19921;-86
2023/12/03 12:55:39;;;;;;;;;;;2.20;99.90;;;;;;5019085;28;20528;-89
2023/12/03 12:58:05;;;;;;;;;;;2.10;99.90;;;;;;5036945;28;19927;-87
2023/12/03 13:00:31;;;;;;;;;;;2.10;99.90;;;;;;5015363;28;19955;-91
2023/12/03 13:02:56;;;;;;;;;;;2.00;99.90;;;;;;5038835;28;19921;-88
2023/12/03 13:05:25;;;;;;;;;;;2.80;99.90;;;;;;5018468;28;20581;-89
2023/12/03 13:07:51;;;;;;;;;;;2.90;99.90;;;;;;5023260;28;19931;-88
2023/12/03 13:10:17;;;;;;;;;;;2.00;99.90;;;;;;5036331;28;19960;-88
2023/12/03 13:12:46;;;;;;;;;;;1.90;99.90;;;;;;5032469;28;19967;-89
2023/12/03 13:15:12;;;;;;;;;;;1.80;99.90;;;;;;5019373;28;19964;-87
2023/12/03 13:17:44;;;;;;;;;;;1.80;99.90;;;;;;5035967;28;20040;-88
2023/12/03 13:20:10;;;;;;;;;;;1.80;99.90;;;;;;5034388;28;20430;-87
2023/12/03 13:22:36;;;;;;;;;;;1.70;99.90;;;;;;5021666;28;19920;-90
2023/12/03 13:25:01;;;;;;;;;;;1.70;99.90;;;;;;5020108;28;19936;-90
2023/12/03 13:27:27;;;;;;;;;;;1.70;99.90;;;;;;5021327;28;19992;-89
2023/12/03 13:29:54;;;;;;;;;;;2.40;99.90;;;;;;5020665;28;19924;-87
2023/12/03 13:32:19;;;;;;;;;;;1.70;99.90;;;;;;5035700;28;19921;-90
2023/12/03 13:34:45;;;;;;;;;;;1.70;99.90;;;;;;5047579;28;19921;-88
2023/12/03 13:37:11;;;;;;;;;;;1.70;99.90;;;;;;5047395;28;19924;-91
2023/12/03 13:39:36;;;;;;;;;;;1.70;99.90;;;;;;5019792;28;19920;-91
2023/12/03 13:42:02;;;;;;;;;;;1.60;99.90;;;;;;5016991;28;19928;-92
2023/12/03 13:44:28;;;;;;;;;;;1.60;99.90;;;;;;5014809;28;20027;-91
2023/12/03 13:46:57;;;;;;;;;;;1.50;99.90;;;;;;5016456;28;20429;-92
2023/12/03 13:49:22;;;;;;;;;;;1.50;99.90;;;;;;5027843;28;19929;-90
2023/12/03 13:51:48;;;;;;;;;;;1.40;99.90;;;;;;5032927;28;19928;-91
2023/12/03 13:54:14;;;;;;;;;;;1.30;99.90;;;;;;5019241;28;19920;-90
2023/12/03 13:56:39;;;;;;;;;;;1.90;99.90;;;;;;5032554;28;19928;-91
2023/12/03 13:59:05;;;;;;;;;;;1.40;99.90;;;;;;5033750;28;20383;-89
2023/12/03 14:01:30;;;;;;;;;;;1.20;99.90;;;;;;5034211;28;19929;-89
2023/12/03 14:03:56;;;;;;;;;;;1.00;99.90;;;;;;5016003;28;19921;-90
2023/12/03 14:06:22;;;;;;;;;;;2.00;99.90;;;;;;5015931;28;19940;-91
2023/12/03 14:08:48;;;;;;;;;;;0.90;99.90;;;;;;5037613;28;19924;-89
2023/12/03 14:11:14;;;;;;;;;;;1.80;99.90;;;;;;5039396;28;19927;-90
2023/12/03 14:13:40;;;;;;;;;;;0.80;99.90;;;;;;5020505;28;19933;-90
2023/12/03 14:16:06;;;;;;;;;;;0.70;99.90;;;;;;5047257;28;19971;-90
2023/12/03 14:18:32;;;;;;;;;;;0.70;99.90;;;;;;5019088;28;19931;-91
2023/12/03 14:20:57;;;;;;;;;;;0.60;99.90;;;;;;5023414;28;19920;-91